Towaoc, Colorado
Current Conditions -  °F | °C
As of 12:53 PM on Sunday 25 Jan 2015 (Local Time) from KCEZ Reporting Station
Clear Clear  
Wind Chill: 42°   Ceiling: Unl
Heat Index: 47°   Visibility: 10mi
Dew Point: 23°   Wind: 10mph
Humidity: 39%   Direction: 200°SSW
Pressure: 30.3"   Gusts: NA
Location:  37.2°N, 108.73°W
Report Text: KCEZ 251953Z AUTO 20009KT 10SM CLR 08/M05 A3030 RMK AO2 SLP259 T00831050
Loading
Personal Weather Stations






























Interactive Weather Map New forecast layout! Learn more

10-Day Weather Forecast

Advertisements
Track Severe Weather on mobile